sensor_id;sensor_type;location;lat;lon;timestamp;temperature;humidity
25438;DHT22;13364;49.084;9.978;2023-04-03T00:00:27;2.10;93.80
25438;DHT22;13364;49.084;9.978;2023-04-03T00:02:54;2.00;94.10
25438;DHT22;13364;49.084;9.978;2023-04-03T00:05:21;2.00;94.40
25438;DHT22;13364;49.084;9.978;2023-04-03T00:07:48;1.90;93.90
25438;DHT22;13364;49.084;9.978;2023-04-03T00:10:16;1.90;94.40
25438;DHT22;13364;49.084;9.978;2023-04-03T00:12:43;1.90;94.50
25438;DHT22;13364;49.084;9.978;2023-04-03T00:15:10;1.90;93.50
25438;DHT22;13364;49.084;9.978;2023-04-03T00:17:38;1.90;93.30
25438;DHT22;13364;49.084;9.978;2023-04-03T00:20:05;1.90;93.70
25438;DHT22;13364;49.084;9.978;2023-04-03T00:22:32;1.90;93.90
25438;DHT22;13364;49.084;9.978;2023-04-03T00:24:59;1.90;93.80
25438;DHT22;13364;49.084;9.978;2023-04-03T00:27:27;1.90;93.80
25438;DHT22;13364;49.084;9.978;2023-04-03T00:29:53;1.90;93.60
25438;DHT22;13364;49.084;9.978;2023-04-03T00:32:21;1.90;93.50
25438;DHT22;13364;49.084;9.978;2023-04-03T00:34:48;1.90;93.50
25438;DHT22;13364;49.084;9.978;2023-04-03T00:37:15;1.90;93.80
25438;DHT22;13364;49.084;9.978;2023-04-03T00:39:42;1.90;93.50
25438;DHT22;13364;49.084;9.978;2023-04-03T00:42:09;1.90;92.80
25438;DHT22;13364;49.084;9.978;2023-04-03T00:47:07;1.80;93.70
25438;DHT22;13364;49.084;9.978;2023-04-03T00:49:36;1.80;93.70
25438;DHT22;13364;49.084;9.978;2023-04-03T00:52:09;1.80;94.20
25438;DHT22;13364;49.084;9.978;2023-04-03T00:54:37;1.80;94.20
25438;DHT22;13364;49.084;9.978;2023-04-03T00:57:05;1.80;94.70
25438;DHT22;13364;49.084;9.978;2023-04-03T00:59:36;1.70;94.90
25438;DHT22;13364;49.084;9.978;2023-04-03T01:02:05;1.70;94.10
25438;DHT22;13364;49.084;9.978;2023-04-03T01:04:38;1.70;93.00
25438;DHT22;13364;49.084;9.978;2023-04-03T01:07:26;1.70;93.90
25438;DHT22;13364;49.084;9.978;2023-04-03T01:09:57;1.70;94.40
25438;DHT22;13364;49.084;9.978;2023-04-03T01:12:28;1.60;94.40
25438;DHT22;13364;49.084;9.978;2023-04-03T01:15:02;1.70;94.20
25438;DHT22;13364;49.084;9.978;2023-04-03T01:17:31;1.70;93.90
25438;DHT22;13364;49.084;9.978;2023-04-03T01:23:22;1.90;92.90
25438;DHT22;13364;49.084;9.978;2023-04-03T01:25:54;1.90;92.90
25438;DHT22;13364;49.084;9.978;2023-04-03T01:28:23;1.80;92.70
25438;DHT22;13364;49.084;9.978;2023-04-03T01:33:27;1.80;92.30
25438;DHT22;13364;49.084;9.978;2023-04-03T01:35:54;1.80;92.60
25438;DHT22;13364;49.084;9.978;2023-04-03T01:38:21;1.80;92.60
25438;DHT22;13364;49.084;9.978;2023-04-03T01:40:49;1.80;92.70
25438;DHT22;13364;49.084;9.978;2023-04-03T01:43:16;1.70;92.20
25438;DHT22;13364;49.084;9.978;2023-04-03T01:45:43;1.80;92.30
25438;DHT22;13364;49.084;9.978;2023-04-03T01:48:11;1.80;92.10
25438;DHT22;13364;49.084;9.978;2023-04-03T01:50:38;1.70;92.30
25438;DHT22;13364;49.084;9.978;2023-04-03T01:53:05;1.80;91.90
25438;DHT22;13364;49.084;9.978;2023-04-03T01:55:32;1.90;91.70
25438;DHT22;13364;49.084;9.978;2023-04-03T01:58:00;1.90;91.60
25438;DHT22;13364;49.084;9.978;2023-04-03T02:00:27;1.90;91.90
25438;DHT22;13364;49.084;9.978;2023-04-03T02:02:54;1.90;91.40
25438;DHT22;13364;49.084;9.978;2023-04-03T02:05:21;1.90;91.50
25438;DHT22;13364;49.084;9.978;2023-04-03T02:07:48;1.90;90.60
25438;DHT22;13364;49.084;9.978;2023-04-03T02:10:16;1.80;91.30
25438;DHT22;13364;49.084;9.978;2023-04-03T02:12:43;1.70;92.20
25438;DHT22;13364;49.084;9.978;2023-04-03T02:15:10;1.60;92.80
25438;DHT22;13364;49.084;9.978;2023-04-03T02:17:37;1.60;92.60
25438;DHT22;13364;49.084;9.978;2023-04-03T02:20:05;1.50;93.00
25438;DHT22;13364;49.084;9.978;2023-04-03T02:22:32;1.50;93.20
25438;DHT22;13364;49.084;9.978;2023-04-03T02:25:00;1.50;93.20
25438;DHT22;13364;49.084;9.978;2023-04-03T02:27:27;1.60;93.10
25438;DHT22;13364;49.084;9.978;2023-04-03T02:29:54;1.60;93.00
25438;DHT22;13364;49.084;9.978;2023-04-03T02:32:22;1.60;92.30
25438;DHT22;13364;49.084;9.978;2023-04-03T02:34:49;1.50;92.30
25438;DHT22;13364;49.084;9.978;2023-04-03T02:37:17;1.50;92.60
25438;DHT22;13364;49.084;9.978;2023-04-03T02:39:45;1.50;91.90
25438;DHT22;13364;49.084;9.978;2023-04-03T02:42:13;1.50;91.90
25438;DHT22;13364;49.084;9.978;2023-04-03T02:44:40;1.50;92.10
25438;DHT22;13364;49.084;9.978;2023-04-03T02:47:09;1.60;92.60
25438;DHT22;13364;49.084;9.978;2023-04-03T02:49:36;1.60;92.70
25438;DHT22;13364;49.084;9.978;2023-04-03T02:52:03;1.60;92.50
25438;DHT22;13364;49.084;9.978;2023-04-03T02:54:30;1.60;92.80
25438;DHT22;13364;49.084;9.978;2023-04-03T02:57:01;1.50;92.80
25438;DHT22;13364;49.084;9.978;2023-04-03T02:59:28;1.50;93.00
25438;DHT22;13364;49.084;9.978;2023-04-03T03:01:56;1.40;93.20
25438;DHT22;13364;49.084;9.978;2023-04-03T03:04:23;1.30;93.50
25438;DHT22;13364;49.084;9.978;2023-04-03T03:06:50;1.30;93.80
25438;DHT22;13364;49.084;9.978;2023-04-03T03:09:17;1.20;93.70
25438;DHT22;13364;49.084;9.978;2023-04-03T03:11:44;1.20;94.00
25438;DHT22;13364;49.084;9.978;2023-04-03T03:14:11;1.20;93.90
25438;DHT22;13364;49.084;9.978;2023-04-03T03:16:38;1.10;93.60
25438;DHT22;13364;49.084;9.978;2023-04-03T03:19:05;1.10;94.00
25438;DHT22;13364;49.084;9.978;2023-04-03T03:21:33;1.10;93.70
25438;DHT22;13364;49.084;9.978;2023-04-03T03:24:01;1.00;94.00
25438;DHT22;13364;49.084;9.978;2023-04-03T03:26:28;1.00;94.40
25438;DHT22;13364;49.084;9.978;2023-04-03T03:28:55;1.00;94.70
25438;DHT22;13364;49.084;9.978;2023-04-03T03:31:22;0.90;95.30
25438;DHT22;13364;49.084;9.978;2023-04-03T03:33:49;0.90;95.50
25438;DHT22;13364;49.084;9.978;2023-04-03T03:36:16;0.90;95.80
25438;DHT22;13364;49.084;9.978;2023-04-03T03:38:43;0.80;96.20
25438;DHT22;13364;49.084;9.978;2023-04-03T03:41:11;0.70;96.10
25438;DHT22;13364;49.084;9.978;2023-04-03T03:43:38;0.70;96.30
25438;DHT22;13364;49.084;9.978;2023-04-03T03:46:06;0.70;96.10
25438;DHT22;13364;49.084;9.978;2023-04-03T03:48:33;0.60;96.20
25438;DHT22;13364;49.084;9.978;2023-04-03T03:51:01;0.60;96.40
25438;DHT22;13364;49.084;9.978;2023-04-03T03:53:32;0.60;96.50
25438;DHT22;13364;49.084;9.978;2023-04-03T03:56:04;0.50;96.70
25438;DHT22;13364;49.084;9.978;2023-04-03T03:58:32;0.50;97.10
25438;DHT22;13364;49.084;9.978;2023-04-03T04:01:06;0.50;96.90
25438;DHT22;13364;49.084;9.978;2023-04-03T04:03:38;0.40;97.10
25438;DHT22;13364;49.084;9.978;2023-04-03T04:06:08;0.50;97.10
25438;DHT22;13364;49.084;9.978;2023-04-03T04:08:35;0.40;97.30
25438;DHT22;13364;49.084;9.978;2023-04-03T04:11:04;0.40;97.60
25438;DHT22;13364;49.084;9.978;2023-04-03T04:13:32;0.40;97.80
25438;DHT22;13364;49.084;9.978;2023-04-03T04:15:59;0.40;98.00
25438;DHT22;13364;49.084;9.978;2023-04-03T04:18:27;0.40;98.20
25438;DHT22;13364;49.084;9.978;2023-04-03T04:20:54;0.40;98.50
25438;DHT22;13364;49.084;9.978;2023-04-03T04:23:22;0.30;97.90
25438;DHT22;13364;49.084;9.978;2023-04-03T04:25:50;0.30;98.40
25438;DHT22;13364;49.084;9.978;2023-04-03T04:28:18;0.30;98.20
25438;DHT22;13364;49.084;9.978;2023-04-03T04:30:47;0.30;98.60
25438;DHT22;13364;49.084;9.978;2023-04-03T04:33:16;0.30;98.40
25438;DHT22;13364;49.084;9.978;2023-04-03T04:35:44;0.30;98.70
25438;DHT22;13364;49.084;9.978;2023-04-03T04:38:13;0.20;98.90
25438;DHT22;13364;49.084;9.978;2023-04-03T04:40:40;0.20;99.10
25438;DHT22;13364;49.084;9.978;2023-04-03T04:43:08;0.20;99.30
25438;DHT22;13364;49.084;9.978;2023-04-03T04:45:35;0.20;99.60
25438;DHT22;13364;49.084;9.978;2023-04-03T04:48:03;0.20;99.70
25438;DHT22;13364;49.084;9.978;2023-04-03T04:50:30;0.20;99.70
25438;DHT22;13364;49.084;9.978;2023-04-03T04:52:57;0.20;99.40
25438;DHT22;13364;49.084;9.978;2023-04-03T04:55:24;0.20;99.60
25438;DHT22;13364;49.084;9.978;2023-04-03T04:57:51;0.10;100.00
25438;DHT22;13364;49.084;9.978;2023-04-03T05:00:20;0.10;100.00
25438;DHT22;13364;49.084;9.978;2023-04-03T05:02:47;0.00;100.00
25438;DHT22;13364;49.084;9.978;2023-04-03T05:05:15;0.10;100.00
25438;DHT22;13364;49.084;9.978;2023-04-03T05:07:42;0.10;100.00
25438;DHT22;13364;49.084;9.978;2023-04-03T05:10:09;0.10;100.00
25438;DHT22;13364;49.084;9.978;2023-04-03T05:12:37;0.10;100.00
25438;DHT22;13364;49.084;9.978;2023-04-03T05:15:05;0.10;100.00
25438;DHT22;13364;49.084;9.978;2023-04-03T05:17:32;0.10;100.00
25438;DHT22;13364;49.084;9.978;2023-04-03T05:20:01;0.10;100.00
25438;DHT22;13364;49.084;9.978;2023-04-03T05:22:30;0.10;100.00
25438;DHT22;13364;49.084;9.978;2023-04-03T05:25:03;0.10;100.00
25438;DHT22;13364;49.084;9.978;2023-04-03T05:27:31;0.20;100.00
25438;DHT22;13364;49.084;9.978;2023-04-03T05:29:59;0.30;100.00
25438;DHT22;13364;49.084;9.978;2023-04-03T05:32:26;0.40;100.00
25438;DHT22;13364;49.084;9.978;2023-04-03T05:35:11;0.60;100.00
25438;DHT22;13364;49.084;9.978;2023-04-03T05:37:39;0.80;99.80
25438;DHT22;13364;49.084;9.978;2023-04-03T05:40:08;0.90;99.30
25438;DHT22;13364;49.084;9.978;2023-04-03T05:42:39;1.00;98.90
25438;DHT22;13364;49.084;9.978;2023-04-03T05:45:06;1.10;98.00
25438;DHT22;13364;49.084;9.978;2023-04-03T05:47:34;1.00;97.70
25438;DHT22;13364;49.084;9.978;2023-04-03T05:50:02;1.00;98.00
25438;DHT22;13364;49.084;9.978;2023-04-03T05:52:33;1.00;98.30
25438;DHT22;13364;49.084;9.978;2023-04-03T05:55:02;1.10;98.30
25438;DHT22;13364;49.084;9.978;2023-04-03T05:57:33;1.00;98.30
25438;DHT22;13364;49.084;9.978;2023-04-03T06:00:00;1.00;98.60
25438;DHT22;13364;49.084;9.978;2023-04-03T06:02:29;1.00;98.80
25438;DHT22;13364;49.084;9.978;2023-04-03T06:04:57;1.00;98.90
25438;DHT22;13364;49.084;9.978;2023-04-03T06:07:25;0.80;99.10
25438;DHT22;13364;49.084;9.978;2023-04-03T06:09:56;0.80;99.70
25438;DHT22;13364;49.084;9.978;2023-04-03T06:12:24;0.80;100.00
25438;DHT22;13364;49.084;9.978;2023-04-03T06:14:51;0.70;100.00
25438;DHT22;13364;49.084;9.978;2023-04-03T06:17:19;0.80;100.00
25438;DHT22;13364;49.084;9.978;2023-04-03T06:19:46;0.90;100.00
25438;DHT22;13364;49.084;9.978;2023-04-03T06:22:15;1.00;100.00
25438;DHT22;13364;49.084;9.978;2023-04-03T06:24:42;1.10;100.00
25438;DHT22;13364;49.084;9.978;2023-04-03T06:27:10;1.20;99.90
25438;DHT22;13364;49.084;9.978;2023-04-03T06:29:38;1.20;99.30
25438;DHT22;13364;49.084;9.978;2023-04-03T06:32:05;1.20;99.40
25438;DHT22;13364;49.084;9.978;2023-04-03T06:34:32;1.30;99.50
25438;DHT22;13364;49.084;9.978;2023-04-03T06:37:00;1.30;99.70
25438;DHT22;13364;49.084;9.978;2023-04-03T06:39:27;1.30;99.20
25438;DHT22;13364;49.084;9.978;2023-04-03T06:41:54;1.30;99.20
25438;DHT22;13364;49.084;9.978;2023-04-03T06:44:29;1.20;99.20
25438;DHT22;13364;49.084;9.978;2023-04-03T06:46:56;1.30;100.00
25438;DHT22;13364;49.084;9.978;2023-04-03T06:49:23;1.20;100.00
25438;DHT22;13364;49.084;9.978;2023-04-03T06:51:50;1.20;99.90
25438;DHT22;13364;49.084;9.978;2023-04-03T06:54:18;1.20;100.00
25438;DHT22;13364;49.084;9.978;2023-04-03T06:56:45;1.30;100.00
25438;DHT22;13364;49.084;9.978;2023-04-03T06:59:13;1.30;100.00
25438;DHT22;13364;49.084;9.978;2023-04-03T07:01:41;1.40;100.00
25438;DHT22;13364;49.084;9.978;2023-04-03T07:04:08;1.40;100.00
25438;DHT22;13364;49.084;9.978;2023-04-03T07:06:36;1.50;100.00
25438;DHT22;13364;49.084;9.978;2023-04-03T07:09:03;1.60;99.70
25438;DHT22;13364;49.084;9.978;2023-04-03T07:11:30;1.70;98.90
25438;DHT22;13364;49.084;9.978;2023-04-03T07:14:30;1.70;99.20
25438;DHT22;13364;49.084;9.978;2023-04-03T07:16:57;1.80;99.20
25438;DHT22;13364;49.084;9.978;2023-04-03T07:19:24;1.90;99.00
25438;DHT22;13364;49.084;9.978;2023-04-03T07:21:54;1.90;98.70
25438;DHT22;13364;49.084;9.978;2023-04-03T07:24:21;1.90;96.00
25438;DHT22;13364;49.084;9.978;2023-04-03T07:26:50;1.90;97.80
25438;DHT22;13364;49.084;9.978;2023-04-03T07:29:18;1.90;97.50
25438;DHT22;13364;49.084;9.978;2023-04-03T07:31:47;1.90;97.20
25438;DHT22;13364;49.084;9.978;2023-04-03T07:34:14;2.00;97.30
25438;DHT22;13364;49.084;9.978;2023-04-03T07:36:41;2.00;96.90
25438;DHT22;13364;49.084;9.978;2023-04-03T07:39:08;2.00;96.70
25438;DHT22;13364;49.084;9.978;2023-04-03T07:41:35;2.10;96.50
25438;DHT22;13364;49.084;9.978;2023-04-03T07:44:02;2.20;96.60
25438;DHT22;13364;49.084;9.978;2023-04-03T07:46:29;2.30;95.90
25438;DHT22;13364;49.084;9.978;2023-04-03T07:48:56;2.30;94.70
25438;DHT22;13364;49.084;9.978;2023-04-03T07:51:24;2.30;95.00
25438;DHT22;13364;49.084;9.978;2023-04-03T07:53:53;2.40;95.40
25438;DHT22;13364;49.084;9.978;2023-04-03T07:56:21;2.50;95.60
25438;DHT22;13364;49.084;9.978;2023-04-03T07:58:49;2.70;94.60
25438;DHT22;13364;49.084;9.978;2023-04-03T08:01:16;2.80;94.20
25438;DHT22;13364;49.084;9.978;2023-04-03T08:03:43;2.90;93.40
25438;DHT22;13364;49.084;9.978;2023-04-03T08:06:11;3.10;93.60
25438;DHT22;13364;49.084;9.978;2023-04-03T08:08:42;3.30;92.60
25438;DHT22;13364;49.084;9.978;2023-04-03T08:11:10;3.30;91.20
25438;DHT22;13364;49.084;9.978;2023-04-03T08:13:38;3.20;91.10
25438;DHT22;13364;49.084;9.978;2023-04-03T08:16:14;3.00;91.50
25438;DHT22;13364;49.084;9.978;2023-04-03T08:18:42;2.90;91.70
25438;DHT22;13364;49.084;9.978;2023-04-03T08:21:10;2.90;91.40
25438;DHT22;13364;49.084;9.978;2023-04-03T08:23:40;2.90;92.00
25438;DHT22;13364;49.084;9.978;2023-04-03T08:26:12;2.90;92.10
25438;DHT22;13364;49.084;9.978;2023-04-03T08:28:39;3.00;90.70
25438;DHT22;13364;49.084;9.978;2023-04-03T08:31:10;2.90;92.20
25438;DHT22;13364;49.084;9.978;2023-04-03T08:33:39;2.90;90.80
25438;DHT22;13364;49.084;9.978;2023-04-03T08:36:14;2.90;91.50
25438;DHT22;13364;49.084;9.978;2023-04-03T08:38:42;2.90;92.50
25438;DHT22;13364;49.084;9.978;2023-04-03T08:44:26;2.90;91.70
25438;DHT22;13364;49.084;9.978;2023-04-03T08:47:04;3.00;92.30
25438;DHT22;13364;49.084;9.978;2023-04-03T08:49:34;3.10;92.60
25438;DHT22;13364;49.084;9.978;2023-04-03T08:52:08;3.20;91.50
25438;DHT22;13364;49.084;9.978;2023-04-03T08:54:54;3.30;91.20
25438;DHT22;13364;49.084;9.978;2023-04-03T08:57:39;3.40;90.40
25438;DHT22;13364;49.084;9.978;2023-04-03T09:00:20;3.30;90.10
25438;DHT22;13364;49.084;9.978;2023-04-03T09:02:53;3.30;90.10
25438;DHT22;13364;49.084;9.978;2023-04-03T09:05:32;3.30;88.70
25438;DHT22;13364;49.084;9.978;2023-04-03T09:10:49;3.40;90.50
25438;DHT22;13364;49.084;9.978;2023-04-03T09:13:36;3.50;88.80
25438;DHT22;13364;49.084;9.978;2023-04-03T09:16:26;3.60;89.10
25438;DHT22;13364;49.084;9.978;2023-04-03T09:19:07;3.70;88.80
25438;DHT22;13364;49.084;9.978;2023-04-03T09:21:40;3.90;87.90
25438;DHT22;13364;49.084;9.978;2023-04-03T09:24:15;3.90;87.50
25438;DHT22;13364;49.084;9.978;2023-04-03T09:27:00;3.90;87.10
25438;DHT22;13364;49.084;9.978;2023-04-03T09:29:29;4.00;86.00
25438;DHT22;13364;49.084;9.978;2023-04-03T09:32:00;3.90;84.60
25438;DHT22;13364;49.084;9.978;2023-04-03T09:34:36;3.80;84.90
25438;DHT22;13364;49.084;9.978;2023-04-03T09:37:04;3.70;86.20
25438;DHT22;13364;49.084;9.978;2023-04-03T09:39:53;3.70;85.60
25438;DHT22;13364;49.084;9.978;2023-04-03T09:42:23;3.70;87.20
25438;DHT22;13364;49.084;9.978;2023-04-03T09:44:59;3.80;85.30
25438;DHT22;13364;49.084;9.978;2023-04-03T09:47:27;3.90;86.10
25438;DHT22;13364;49.084;9.978;2023-04-03T09:52:41;4.10;85.90
25438;DHT22;13364;49.084;9.978;2023-04-03T09:55:19;4.30;85.70
25438;DHT22;13364;49.084;9.978;2023-04-03T09:57:57;4.10;83.90
25438;DHT22;13364;49.084;9.978;2023-04-03T10:00:30;3.90;83.00
25438;DHT22;13364;49.084;9.978;2023-04-03T10:02:59;3.70;84.30
25438;DHT22;13364;49.084;9.978;2023-04-03T10:05:33;3.60;85.40
25438;DHT22;13364;49.084;9.978;2023-04-03T10:10:37;3.60;84.30
25438;DHT22;13364;49.084;9.978;2023-04-03T10:13:16;3.60;85.10
25438;DHT22;13364;49.084;9.978;2023-04-03T10:24:50;4.00;83.90
25438;DHT22;13364;49.084;9.978;2023-04-03T10:38:55;3.60;81.90
25438;DHT22;13364;49.084;9.978;2023-04-03T10:41:50;3.60;79.10
25438;DHT22;13364;49.084;9.978;2023-04-03T10:47:37;3.70;80.50
25438;DHT22;13364;49.084;9.978;2023-04-03T10:56:06;4.00;76.30
25438;DHT22;13364;49.084;9.978;2023-04-03T10:58:40;4.10;76.30
25438;DHT22;13364;49.084;9.978;2023-04-03T11:04:31;4.10;73.90
25438;DHT22;13364;49.084;9.978;2023-04-03T11:09:41;4.00;76.40
25438;DHT22;13364;49.084;9.978;2023-04-03T11:12:17;4.10;77.50
25438;DHT22;13364;49.084;9.978;2023-04-03T11:19:22;4.30;73.70
25438;DHT22;13364;49.084;9.978;2023-04-03T11:21:57;4.60;76.10
25438;DHT22;13364;49.084;9.978;2023-04-03T11:24:31;4.80;71.80
25438;DHT22;13364;49.084;9.978;2023-04-03T11:26:59;4.60;72.20
25438;DHT22;13364;49.084;9.978;2023-04-03T11:29:38;4.40;71.70
25438;DHT22;13364;49.084;9.978;2023-04-03T11:34:57;4.50;72.60
25438;DHT22;13364;49.084;9.978;2023-04-03T11:40:20;4.80;71.70
25438;DHT22;13364;49.084;9.978;2023-04-03T11:46:06;5.00;73.10
25438;DHT22;13364;49.084;9.978;2023-04-03T11:53:40;4.90;67.10
25438;DHT22;13364;49.084;9.978;2023-04-03T12:01:52;4.60;70.30
25438;DHT22;13364;49.084;9.978;2023-04-03T12:04:22;4.50;71.50
25438;DHT22;13364;49.084;9.978;2023-04-03T12:06:54;4.40;71.30
25438;DHT22;13364;49.084;9.978;2023-04-03T12:12:00;4.30;71.20
25438;DHT22;13364;49.084;9.978;2023-04-03T12:14:28;4.20;74.40
25438;DHT22;13364;49.084;9.978;2023-04-03T12:16:57;4.30;73.10
25438;DHT22;13364;49.084;9.978;2023-04-03T12:22:15;4.50;71.60
25438;DHT22;13364;49.084;9.978;2023-04-03T12:24:45;4.50;71.10
25438;DHT22;13364;49.084;9.978;2023-04-03T12:30:24;4.60;72.40
25438;DHT22;13364;49.084;9.978;2023-04-03T12:38:29;4.70;70.80
25438;DHT22;13364;49.084;9.978;2023-04-03T12:43:53;4.50;70.30
25438;DHT22;13364;49.084;9.978;2023-04-03T12:46:24;4.60;71.10
25438;DHT22;13364;49.084;9.978;2023-04-03T12:48:58;4.70;70.90
25438;DHT22;13364;49.084;9.978;2023-04-03T12:51:39;4.90;72.00
25438;DHT22;13364;49.084;9.978;2023-04-03T12:54:31;5.00;71.10
25438;DHT22;13364;49.084;9.978;2023-04-03T12:57:25;4.90;69.90
25438;DHT22;13364;49.084;9.978;2023-04-03T12:59:54;4.70;69.10
25438;DHT22;13364;49.084;9.978;2023-04-03T13:02:28;4.60;71.90
25438;DHT22;13364;49.084;9.978;2023-04-03T13:04:59;4.60;68.80
25438;DHT22;13364;49.084;9.978;2023-04-03T13:07:28;4.50;70.50
25438;DHT22;13364;49.084;9.978;2023-04-03T13:10:09;4.50;70.20
25438;DHT22;13364;49.084;9.978;2023-04-03T13:12:55;4.60;72.20
25438;DHT22;13364;49.084;9.978;2023-04-03T13:15:28;4.80;71.10
25438;DHT22;13364;49.084;9.978;2023-04-03T13:17:56;4.90;70.00
25438;DHT22;13364;49.084;9.978;2023-04-03T13:23:07;5.30;67.40
25438;DHT22;13364;49.084;9.978;2023-04-03T13:25:40;5.40;65.70
25438;DHT22;13364;49.084;9.978;2023-04-03T13:28:41;5.40;66.90
25438;DHT22;13364;49.084;9.978;2023-04-03T13:34:06;5.50;66.40
25438;DHT22;13364;49.084;9.978;2023-04-03T13:36:39;5.40;65.60
25438;DHT22;13364;49.084;9.978;2023-04-03T13:39:23;5.20;66.20
25438;DHT22;13364;49.084;9.978;2023-04-03T13:42:02;5.10;66.70
25438;DHT22;13364;49.084;9.978;2023-04-03T13:44:39;5.00;66.70
25438;DHT22;13364;49.084;9.978;2023-04-03T13:47:24;5.10;68.10
25438;DHT22;13364;49.084;9.978;2023-04-03T13:53:08;6.00;66.20
25438;DHT22;13364;49.084;9.978;2023-04-03T13:55:37;6.50;65.40
25438;DHT22;13364;49.084;9.978;2023-04-03T13:58:29;6.90;63.90
25438;DHT22;13364;49.084;9.978;2023-04-03T14:01:17;7.10;61.70
25438;DHT22;13364;49.084;9.978;2023-04-03T14:04:01;7.10;59.50
25438;DHT22;13364;49.084;9.978;2023-04-03T14:06:38;6.80;59.20
25438;DHT22;13364;49.084;9.978;2023-04-03T14:09:06;6.60;60.30
25438;DHT22;13364;49.084;9.978;2023-04-03T14:11:34;6.70;61.80
25438;DHT22;13364;49.084;9.978;2023-04-03T14:14:05;6.80;62.50
25438;DHT22;13364;49.084;9.978;2023-04-03T14:16:39;7.10;61.40
25438;DHT22;13364;49.084;9.978;2023-04-03T14:19:33;7.10;60.70
25438;DHT22;13364;49.084;9.978;2023-04-03T14:22:28;7.10;60.00
25438;DHT22;13364;49.084;9.978;2023-04-03T14:24:55;6.60;60.40
25438;DHT22;13364;49.084;9.978;2023-04-03T14:27:26;6.20;61.20
25438;DHT22;13364;49.084;9.978;2023-04-03T14:29:56;5.80;61.40
25438;DHT22;13364;49.084;9.978;2023-04-03T14:32:23;5.50;62.70
25438;DHT22;13364;49.084;9.978;2023-04-03T14:34:58;5.50;63.20
25438;DHT22;13364;49.084;9.978;2023-04-03T14:37:29;5.70;62.60
25438;DHT22;13364;49.084;9.978;2023-04-03T14:40:27;5.90;63.50
25438;DHT22;13364;49.084;9.978;2023-04-03T14:43:12;5.90;62.30
25438;DHT22;13364;49.084;9.978;2023-04-03T14:45:39;5.90;60.70
25438;DHT22;13364;49.084;9.978;2023-04-03T14:48:12;5.90;61.40
25438;DHT22;13364;49.084;9.978;2023-04-03T14:50:43;6.10;62.30
25438;DHT22;13364;49.084;9.978;2023-04-03T14:53:32;6.20;62.90
25438;DHT22;13364;49.084;9.978;2023-04-03T14:56:10;6.20;61.10
25438;DHT22;13364;49.084;9.978;2023-04-03T14:58:38;6.20;63.70
25438;DHT22;13364;49.084;9.978;2023-04-03T15:01:05;6.10;62.80
25438;DHT22;13364;49.084;9.978;2023-04-03T15:03:33;6.00;61.80
25438;DHT22;13364;49.084;9.978;2023-04-03T15:06:00;5.90;62.10
25438;DHT22;13364;49.084;9.978;2023-04-03T15:08:28;5.80;60.90
25438;DHT22;13364;49.084;9.978;2023-04-03T15:10:58;5.70;61.00
25438;DHT22;13364;49.084;9.978;2023-04-03T15:13:25;5.70;63.00
25438;DHT22;13364;49.084;9.978;2023-04-03T15:19:23;6.10;62.40
25438;DHT22;13364;49.084;9.978;2023-04-03T15:21:51;6.30;59.00
25438;DHT22;13364;49.084;9.978;2023-04-03T15:24:18;6.30;61.60
25438;DHT22;13364;49.084;9.978;2023-04-03T15:26:45;6.30;60.80
25438;DHT22;13364;49.084;9.978;2023-04-03T15:29:12;6.20;61.90
25438;DHT22;13364;49.084;9.978;2023-04-03T15:31:39;6.10;60.90
25438;DHT22;13364;49.084;9.978;2023-04-03T15:34:06;6.00;62.30
25438;DHT22;13364;49.084;9.978;2023-04-03T15:36:33;5.90;62.60
25438;DHT22;13364;49.084;9.978;2023-04-03T15:39:01;6.00;63.00
25438;DHT22;13364;49.084;9.978;2023-04-03T15:41:28;6.30;63.00
25438;DHT22;13364;49.084;9.978;2023-04-03T15:43:55;6.60;60.40
25438;DHT22;13364;49.084;9.978;2023-04-03T15:46:22;6.70;60.90
25438;DHT22;13364;49.084;9.978;2023-04-03T15:48:49;6.70;60.60
25438;DHT22;13364;49.084;9.978;2023-04-03T15:51:17;6.30;59.00
25438;DHT22;13364;49.084;9.978;2023-04-03T15:53:44;5.90;60.70
25438;DHT22;13364;49.084;9.978;2023-04-03T15:56:11;5.50;62.70
25438;DHT22;13364;49.084;9.978;2023-04-03T15:58:38;5.30;64.30
25438;DHT22;13364;49.084;9.978;2023-04-03T16:01:05;5.20;64.50
25438;DHT22;13364;49.084;9.978;2023-04-03T16:03:33;5.20;64.40
25438;DHT22;13364;49.084;9.978;2023-04-03T16:06:01;5.10;63.70
25438;DHT22;13364;49.084;9.978;2023-04-03T16:08:28;5.10;63.40
25438;DHT22;13364;49.084;9.978;2023-04-03T16:10:55;5.10;63.70
25438;DHT22;13364;49.084;9.978;2023-04-03T16:13:22;5.00;64.60
25438;DHT22;13364;49.084;9.978;2023-04-03T16:15:49;5.00;66.20
25438;DHT22;13364;49.084;9.978;2023-04-03T16:18:16;4.90;64.30
25438;DHT22;13364;49.084;9.978;2023-04-03T16:20:45;5.00;65.30
25438;DHT22;13364;49.084;9.978;2023-04-03T16:23:12;5.00;64.10
25438;DHT22;13364;49.084;9.978;2023-04-03T16:25:39;4.90;65.40
25438;DHT22;13364;49.084;9.978;2023-04-03T16:28:07;4.70;64.20
25438;DHT22;13364;49.084;9.978;2023-04-03T16:30:34;4.60;62.90
25438;DHT22;13364;49.084;9.978;2023-04-03T16:33:01;4.50;64.60
25438;DHT22;13364;49.084;9.978;2023-04-03T16:35:29;4.40;65.30
25438;DHT22;13364;49.084;9.978;2023-04-03T16:37:56;4.40;66.40
25438;DHT22;13364;49.084;9.978;2023-04-03T16:40:23;4.30;65.30
25438;DHT22;13364;49.084;9.978;2023-04-03T16:42:50;4.30;66.50
25438;DHT22;13364;49.084;9.978;2023-04-03T16:45:17;4.30;66.80
25438;DHT22;13364;49.084;9.978;2023-04-03T16:47:45;4.20;68.30
25438;DHT22;13364;49.084;9.978;2023-04-03T16:53:11;4.10;67.90
25438;DHT22;13364;49.084;9.978;2023-04-03T16:55:38;4.10;67.80
25438;DHT22;13364;49.084;9.978;2023-04-03T16:58:06;4.00;68.00
25438;DHT22;13364;49.084;9.978;2023-04-03T17:00:33;3.90;67.80
25438;DHT22;13364;49.084;9.978;2023-04-03T17:03:00;3.90;69.00
25438;DHT22;13364;49.084;9.978;2023-04-03T17:05:28;3.90;68.80
25438;DHT22;13364;49.084;9.978;2023-04-03T17:07:55;3.80;69.40
25438;DHT22;13364;49.084;9.978;2023-04-03T17:10:22;3.80;68.20
25438;DHT22;13364;49.084;9.978;2023-04-03T17:12:49;3.70;68.60
25438;DHT22;13364;49.084;9.978;2023-04-03T17:15:16;3.70;68.30
25438;DHT22;13364;49.084;9.978;2023-04-03T17:17:43;3.60;67.70
25438;DHT22;13364;49.084;9.978;2023-04-03T17:20:10;3.60;68.30
25438;DHT22;13364;49.084;9.978;2023-04-03T17:22:37;3.60;67.90
25438;DHT22;13364;49.084;9.978;2023-04-03T17:25:05;3.60;68.40
25438;DHT22;13364;49.084;9.978;2023-04-03T17:27:32;3.50;68.50
25438;DHT22;13364;49.084;9.978;2023-04-03T17:29:59;3.50;69.70
25438;DHT22;13364;49.084;9.978;2023-04-03T17:32:26;3.40;68.70
25438;DHT22;13364;49.084;9.978;2023-04-03T17:34:53;3.30;69.50
25438;DHT22;13364;49.084;9.978;2023-04-03T17:37:21;3.30;69.30
25438;DHT22;13364;49.084;9.978;2023-04-03T17:39:48;3.20;69.10
25438;DHT22;13364;49.084;9.978;2023-04-03T17:42:15;3.10;68.90
25438;DHT22;13364;49.084;9.978;2023-04-03T17:44:42;3.10;69.80
25438;DHT22;13364;49.084;9.978;2023-04-03T17:47:09;3.00;70.00
25438;DHT22;13364;49.084;9.978;2023-04-03T17:49:36;3.00;69.70
25438;DHT22;13364;49.084;9.978;2023-04-03T17:52:03;2.90;69.90
25438;DHT22;13364;49.084;9.978;2023-04-03T17:54:30;2.90;70.50